Time;durP1;ratioP1;P1;durP2;ratioP2;P2;SDS_P1;SDS_P2;PMS_P1;PMS_P2;Temp;Humidity;BMP_temperature;BMP_pressure;BME280_temperature;BME280_humidity;BME280_pressure;Samples;Min_cycle;Max_cycle;Signal;HPM_P1;HPM_P2
2022/03/26 00:00:34;;;;;;;7.93;5.80;;;18.20;43.60;;;;;;5019949;28;20171;-11
2022/03/26 00:03:00;;;;;;;5.30;4.77;;;18.20;43.60;;;;;;5020607;28;20173;-11
2022/03/26 00:05:27;;;;;;;8.10;5.40;;;18.20;43.60;;;;;;5019566;28;20798;-11
2022/03/26 00:07:53;;;;;;;6.97;5.43;;;18.20;43.70;;;;;;5020012;28;20589;-11
2022/03/26 00:10:18;;;;;;;5.40;4.90;;;18.20;43.70;;;;;;5037254;28;20728;-11
2022/03/26 00:12:44;;;;;;;5.77;5.20;;;18.20;43.70;;;;;;5037245;28;20180;-11
2022/03/26 00:15:12;;;;;;;6.87;5.27;;;18.20;43.70;;;;;;5037663;28;20230;-11
2022/03/26 00:17:39;;;;;;;6.87;5.57;;;18.20;43.70;;;;;;5037360;28;20160;-11
2022/03/26 00:20:06;;;;;;;6.37;5.40;;;18.20;43.70;;;;;;5037333;28;20578;-11
2022/03/26 00:22:32;;;;;;;6.63;5.30;;;18.20;43.70;;;;;;5037709;28;20555;-11
2022/03/26 00:24:58;;;;;;;7.90;5.70;;;18.10;43.60;;;;;;5019248;28;20207;-11
2022/03/26 00:27:24;;;;;;;6.07;5.17;;;18.20;43.70;;;;;;5039281;28;20801;-11
2022/03/26 00:29:50;;;;;;;6.43;5.63;;;18.10;43.70;;;;;;5019665;28;20173;-11
2022/03/26 00:32:16;;;;;;;5.67;5.10;;;18.10;43.70;;;;;;5036787;28;20459;-11
2022/03/26 00:34:41;;;;;;;6.53;5.47;;;18.10;44.10;;;;;;5019735;28;20211;-11
2022/03/26 00:37:08;;;;;;;6.70;5.20;;;18.10;43.70;;;;;;5036812;28;20186;-11
2022/03/26 00:39:33;;;;;;;5.53;4.93;;;18.10;43.70;;;;;;5037071;28;20176;-11
2022/03/26 00:41:59;;;;;;;6.17;5.37;;;18.10;43.70;;;;;;5019403;28;20197;-11
2022/03/26 00:44:25;;;;;;;5.40;4.90;;;18.10;43.70;;;;;;5036914;28;20219;-11
2022/03/26 00:46:51;;;;;;;6.03;5.20;;;18.10;43.70;;;;;;5020289;28;20498;-11
2022/03/26 00:49:18;;;;;;;6.10;5.10;;;18.10;43.70;;;;;;5037312;28;20177;-11
2022/03/26 00:51:44;;;;;;;6.37;5.33;;;18.10;43.70;;;;;;5039547;28;20177;-11
2022/03/26 00:54:15;;;;;;;5.67;4.70;;;18.10;43.70;;;;;;5040650;28;20165;-11
2022/03/26 00:56:43;;;;;;;5.10;4.60;;;18.10;43.70;;;;;;5023712;28;20182;-11
2022/03/26 00:59:09;;;;;;;5.47;4.97;;;18.10;43.70;;;;;;5023706;28;20520;-11
2022/03/26 01:01:35;;;;;;;6.00;5.10;;;18.10;43.70;;;;;;5023357;28;20613;-11
2022/03/26 01:04:01;;;;;;;5.60;5.10;;;18.10;43.70;;;;;;5040364;28;20210;-11
2022/03/26 01:06:28;;;;;;;6.07;5.10;;;18.10;43.70;;;;;;5040696;28;20190;-11
2022/03/26 01:08:54;;;;;;;6.83;4.77;;;18.10;43.70;;;;;;5040460;28;20575;-11
2022/03/26 01:11:20;;;;;;;6.43;5.10;;;18.00;43.70;;;;;;5040534;28;20286;-11
2022/03/26 01:13:48;;;;;;;6.13;4.80;;;18.10;43.70;;;;;;5023511;28;20242;-11
2022/03/26 01:16:13;;;;;;;5.10;4.53;;;18.00;43.70;;;;;;5023090;28;20184;-11
2022/03/26 01:18:40;;;;;;;5.17;4.67;;;18.00;43.70;;;;;;5022971;28;20205;-11
2022/03/26 01:21:06;;;;;;;6.23;4.90;;;18.10;43.70;;;;;;5023195;28;20250;-11
2022/03/26 01:23:34;;;;;;;5.20;4.70;;;18.10;43.70;;;;;;5040035;28;20169;-11
2022/03/26 01:26:00;;;;;;;6.30;4.93;;;18.10;43.70;;;;;;5023632;28;20174;-11
2022/03/26 01:28:26;;;;;;;5.93;4.77;;;18.10;43.70;;;;;;5023400;28;20180;-11
2022/03/26 01:30:52;;;;;;;5.03;4.53;;;18.00;43.60;;;;;;5039922;28;20217;-11
2022/03/26 01:33:18;;;;;;;5.27;4.50;;;18.00;43.60;;;;;;5023029;28;20176;-11
2022/03/26 01:35:45;;;;;;;4.90;4.40;;;18.00;43.60;;;;;;5040369;28;20183;-11
2022/03/26 01:38:11;;;;;;;5.43;4.77;;;18.00;43.60;;;;;;5022638;28;20198;-11
2022/03/26 01:40:37;;;;;;;6.00;4.90;;;18.10;43.70;;;;;;5022676;28;20180;-11
2022/03/26 01:43:04;;;;;;;5.70;5.07;;;18.00;43.60;;;;;;5022815;28;20173;-11
2022/03/26 01:45:31;;;;;;;5.00;4.50;;;18.00;43.60;;;;;;5022134;28;20294;-11
2022/03/26 01:47:58;;;;;;;5.20;4.70;;;18.00;43.60;;;;;;5022781;28;20170;-11
2022/03/26 01:50:25;;;;;;;5.77;4.90;;;18.00;43.60;;;;;;5022080;28;20561;-11
2022/03/26 01:52:51;;;;;;;6.33;4.90;;;18.00;44.00;;;;;;5022223;28;20209;-11
2022/03/26 01:55:19;;;;;;;5.90;4.60;;;18.00;43.60;;;;;;5039378;28;20549;-11
2022/03/26 01:57:46;;;;;;;5.00;4.50;;;18.00;43.60;;;;;;5023163;28;20170;-11
2022/03/26 02:00:12;;;;;;;4.57;4.17;;;18.00;43.60;;;;;;5022317;28;20231;-11
2022/03/26 02:02:43;;;;;;;5.87;4.50;;;18.00;43.60;;;;;;5023714;28;20173;-11
2022/03/26 02:05:15;;;;;;;6.23;4.60;;;18.00;43.60;;;;;;5021597;28;20265;-11
2022/03/26 02:07:43;;;;;;;4.87;4.40;;;18.00;43.60;;;;;;5038322;28;20553;-11
2022/03/26 02:10:13;;;;;;;4.80;4.30;;;18.00;43.60;;;;;;5038034;28;20186;-11
2022/03/26 02:12:39;;;;;;;5.63;4.47;;;18.00;43.60;;;;;;5038858;28;20172;-11
2022/03/26 02:15:07;;;;;;;6.17;5.07;;;18.00;43.60;;;;;;5038819;28;20170;-11
2022/03/26 02:17:35;;;;;;;5.60;4.50;;;18.00;43.50;;;;;;5021887;28;20550;-11
2022/03/26 02:20:03;;;;;;;5.83;4.77;;;18.00;43.50;;;;;;5038610;28;20558;-11
2022/03/26 02:22:29;;;;;;;5.07;4.33;;;18.10;43.50;;;;;;5021798;28;20167;-11
2022/03/26 02:24:57;;;;;;;5.57;4.53;;;18.10;43.40;;;;;;5021757;28;20311;-11
2022/03/26 02:27:25;;;;;;;5.40;4.37;;;18.20;43.40;;;;;;5039065;28;20265;-11
2022/03/26 02:29:52;;;;;;;7.80;4.90;;;18.20;43.30;;;;;;5038933;28;20172;-11
2022/03/26 02:32:25;;;;;;;4.90;4.40;;;18.30;43.20;;;;;;5038675;28;20180;-11
2022/03/26 02:34:53;;;;;;;6.23;4.90;;;18.40;43.20;;;;;;5021951;28;20181;-11
2022/03/26 02:37:19;;;;;;;5.40;4.30;;;18.40;43.10;;;;;;5022240;28;20421;-11
2022/03/26 02:39:45;;;;;;;4.90;4.33;;;18.50;43.00;;;;;;5038810;28;20593;-11
2022/03/26 02:42:12;;;;;;;5.03;4.53;;;18.60;42.90;;;;;;5038792;28;20176;-11
2022/03/26 02:44:39;;;;;;;4.93;4.33;;;18.60;43.20;;;;;;5039023;28;20190;-11
2022/03/26 02:47:07;;;;;;;6.50;4.43;;;18.60;42.80;;;;;;5022448;28;20437;-11
2022/03/26 02:49:33;;;;;;;7.00;4.63;;;18.60;42.70;;;;;;5038855;28;20558;-11
2022/03/26 02:51:58;;;;;;;5.23;4.60;;;18.70;42.70;;;;;;5038718;28;20177;-11
2022/03/26 02:54:26;;;;;;;5.63;4.63;;;18.70;42.70;;;;;;5039085;28;20178;-11
2022/03/26 02:56:56;;;;;;;5.20;4.60;;;18.70;42.70;;;;;;5021936;28;20179;-11
2022/03/26 02:59:21;;;;;;;4.87;4.37;;;18.70;42.60;;;;;;5038632;28;20270;-11
2022/03/26 03:01:47;;;;;;;4.80;4.30;;;18.70;42.70;;;;;;5037257;28;20267;-11
2022/03/26 03:04:14;;;;;;;4.83;4.43;;;18.70;42.60;;;;;;5021294;28;20217;-11
2022/03/26 03:06:40;;;;;;;4.90;4.40;;;18.70;42.60;;;;;;5020792;28;20498;-11
2022/03/26 03:09:07;;;;;;;5.00;4.50;;;18.70;42.60;;;;;;5020792;28;20234;-11
2022/03/26 03:11:34;;;;;;;6.30;4.77;;;18.70;42.60;;;;;;5038928;28;20166;-11
2022/03/26 03:14:00;;;;;;;4.83;4.33;;;18.70;42.60;;;;;;5037249;28;20185;-11
2022/03/26 03:16:26;;;;;;;4.93;4.43;;;18.70;42.60;;;;;;5038407;28;20562;-11
2022/03/26 03:18:52;;;;;;;5.20;4.70;;;18.70;42.60;;;;;;5038000;28;20283;-11
2022/03/26 03:21:18;;;;;;;4.67;4.27;;;18.70;42.60;;;;;;5020542;28;20175;-11
2022/03/26 03:23:44;;;;;;;4.80;4.33;;;18.70;42.60;;;;;;5038350;28;20276;-11
2022/03/26 03:26:10;;;;;;;4.97;4.37;;;18.70;42.60;;;;;;5020937;28;20710;-11
2022/03/26 03:28:36;;;;;;;4.97;4.30;;;18.70;42.60;;;;;;5037732;28;20181;-11
2022/03/26 03:31:02;;;;;;;4.60;4.20;;;18.70;42.60;;;;;;5037904;28;20179;-11
2022/03/26 03:33:28;;;;;;;5.00;4.50;;;18.60;42.60;;;;;;5037970;28;20582;-11
2022/03/26 03:35:54;;;;;;;5.00;4.50;;;18.60;42.60;;;;;;5037548;28;20181;-11
2022/03/26 03:38:19;;;;;;;5.13;4.40;;;18.60;42.60;;;;;;5037641;28;20625;-11
2022/03/26 03:40:45;;;;;;;5.57;4.60;;;18.60;42.60;;;;;;5020183;28;20177;-11
2022/03/26 03:43:13;;;;;;;5.53;4.50;;;18.60;42.60;;;;;;5020637;28;20176;-11
2022/03/26 03:45:39;;;;;;;4.73;4.30;;;18.60;42.60;;;;;;5020475;28;20214;-11
2022/03/26 03:48:05;;;;;;;5.13;4.63;;;18.60;42.60;;;;;;5037704;28;20162;-11
2022/03/26 03:50:30;;;;;;;5.10;4.40;;;18.60;42.70;;;;;;5037583;28;20169;-11
2022/03/26 03:52:57;;;;;;;5.33;4.60;;;18.50;42.60;;;;;;5037803;28;20282;-11
2022/03/26 03:55:24;;;;;;;6.20;4.43;;;18.50;42.60;;;;;;5020825;28;20180;-11
2022/03/26 03:57:50;;;;;;;4.93;4.43;;;18.50;42.60;;;;;;5038107;28;20157;-11
2022/03/26 04:00:16;;;;;;;4.90;4.23;;;18.50;42.70;;;;;;5037262;28;20691;-11
2022/03/26 04:02:43;;;;;;;4.43;4.00;;;18.40;42.70;;;;;;5037435;28;20537;-11
2022/03/26 04:05:09;;;;;;;5.00;4.47;;;18.40;42.70;;;;;;5020219;28;20544;-11
2022/03/26 04:07:39;;;;;;;5.10;4.47;;;18.40;42.70;;;;;;5037200;28;20193;-11
2022/03/26 04:10:07;;;;;;;5.33;4.50;;;18.40;42.70;;;;;;5038203;28;20470;-11
2022/03/26 04:12:41;;;;;;;4.97;4.40;;;18.40;42.70;;;;;;5020418;28;20535;-11
2022/03/26 04:15:09;;;;;;;4.70;4.20;;;18.40;42.70;;;;;;5020091;28;20222;-11
2022/03/26 04:17:35;;;;;;;5.07;4.50;;;18.30;42.70;;;;;;5036989;28;20525;-11
2022/03/26 04:20:02;;;;;;;5.53;4.90;;;18.40;42.70;;;;;;5037044;28;20277;-11
2022/03/26 04:22:28;;;;;;;4.90;4.40;;;18.40;42.70;;;;;;5036952;28;20187;-12
2022/03/26 04:24:54;;;;;;;6.27;5.00;;;18.30;42.70;;;;;;5020319;28;20233;-11
2022/03/26 04:27:20;;;;;;;4.87;4.37;;;18.40;42.70;;;;;;5037258;28;20176;-11
2022/03/26 04:29:45;;;;;;;5.20;4.60;;;18.40;42.70;;;;;;5036884;28;20182;-11
2022/03/26 04:32:11;;;;;;;5.60;4.40;;;18.30;42.70;;;;;;5036816;28;20230;-11
2022/03/26 04:34:38;;;;;;;4.90;4.40;;;18.30;42.70;;;;;;5037198;28;20270;-11
2022/03/26 04:37:05;;;;;;;5.30;4.80;;;18.30;42.70;;;;;;5019987;28;20208;-11
2022/03/26 04:39:31;;;;;;;7.13;4.70;;;18.30;42.70;;;;;;5037141;28;20547;-11
2022/03/26 04:41:57;;;;;;;4.93;4.43;;;18.30;42.70;;;;;;5019524;28;20625;-12
2022/03/26 04:44:22;;;;;;;5.07;4.57;;;18.40;42.70;;;;;;5020130;28;20212;-11
2022/03/26 04:46:48;;;;;;;5.83;4.77;;;18.40;42.70;;;;;;5019520;28;20175;-11
2022/03/26 04:49:14;;;;;;;5.00;4.50;;;18.40;42.60;;;;;;5037074;28;20214;-11
2022/03/26 04:51:40;;;;;;;5.00;4.37;;;18.40;42.60;;;;;;5036661;28;20234;-11
2022/03/26 04:54:06;;;;;;;4.93;4.43;;;18.40;42.60;;;;;;5037102;28;20224;-11
2022/03/26 04:56:32;;;;;;;6.43;5.23;;;18.50;42.60;;;;;;5036977;28;20165;-11
2022/03/26 04:58:58;;;;;;;4.83;4.17;;;18.50;42.50;;;;;;5037028;28;20598;-11
2022/03/26 05:01:23;;;;;;;6.07;4.27;;;18.50;42.50;;;;;;5019555;28;20179;-11
2022/03/26 05:03:50;;;;;;;4.63;4.23;;;18.50;42.50;;;;;;5019404;28;20204;-11
2022/03/26 05:06:16;;;;;;;5.17;4.57;;;18.40;42.50;;;;;;5036221;28;20214;-11
2022/03/26 05:08:41;;;;;;;5.40;4.90;;;18.30;42.60;;;;;;5036836;28;20177;-11
2022/03/26 05:11:07;;;;;;;4.90;4.40;;;18.20;42.70;;;;;;5036477;28;20184;-11
2022/03/26 05:13:33;;;;;;;4.80;4.30;;;18.10;42.70;;;;;;5019369;28;20193;-11
2022/03/26 05:15:59;;;;;;;5.10;4.43;;;18.10;43.00;;;;;;5037238;28;20185;-11
2022/03/26 05:18:24;;;;;;;5.07;4.57;;;18.00;42.90;;;;;;5019180;28;20207;-11
2022/03/26 05:20:50;;;;;;;5.37;4.77;;;17.90;43.00;;;;;;5019545;28;20180;-11
2022/03/26 05:23:16;;;;;;;5.77;4.53;;;17.90;43.10;;;;;;5036661;28;20184;-11
2022/03/26 05:25:42;;;;;;;5.37;4.87;;;17.80;43.10;;;;;;5036695;28;20270;-11
2022/03/26 05:28:08;;;;;;;5.13;4.50;;;17.70;43.10;;;;;;5036702;28;20236;-11
2022/03/26 05:30:35;;;;;;;4.83;4.33;;;17.70;43.20;;;;;;5019809;28;20182;-11
2022/03/26 05:33:01;;;;;;;4.87;4.40;;;17.70;43.20;;;;;;5036848;28;20305;-11
2022/03/26 05:35:27;;;;;;;5.17;4.40;;;18.20;43.00;;;;;;5020824;28;20499;-11
2022/03/26 05:37:53;;;;;;;5.20;4.37;;;20.40;41.30;;;;;;5022355;28;20215;-11
2022/03/26 05:40:21;;;;;;;5.50;4.53;;;22.00;39.30;;;;;;5022704;28;20190;-11
2022/03/26 05:42:48;;;;;;;4.90;4.30;;;22.40;38.50;;;;;;5040053;28;20166;-11
2022/03/26 05:45:14;;;;;;;6.47;4.60;;;22.70;38.30;;;;;;5040060;28;20470;-11
2022/03/26 05:47:40;;;;;;;5.40;4.70;;;22.80;38.10;;;;;;5022563;28;20191;-11
2022/03/26 05:50:12;;;;;;;4.90;4.40;;;23.10;37.80;;;;;;5039999;28;20173;-11
2022/03/26 05:52:38;;;;;;;5.33;4.83;;;23.50;37.50;;;;;;5022159;28;20188;-11
2022/03/26 05:55:04;;;;;;;4.90;4.40;;;23.70;37.20;;;;;;5039328;28;20176;-11
2022/03/26 05:57:35;;;;;;;7.10;5.33;;;23.70;37.10;;;;;;5039472;28;20175;-11
2022/03/26 06:00:03;;;;;;;4.87;4.37;;;23.70;37.00;;;;;;5037149;28;20179;-11
2022/03/26 06:05:30;;;;;;;5.47;4.83;;;23.40;37.30;;;;;;5039311;28;20230;-11
2022/03/26 06:07:56;;;;;;;5.07;4.60;;;23.20;37.40;;;;;;5022156;28;20192;-12
2022/03/26 06:10:23;;;;;;;5.33;4.83;;;22.90;37.60;;;;;;5038918;28;20184;-11
2022/03/26 06:12:48;;;;;;;5.70;5.10;;;22.70;37.80;;;;;;5021482;28;20173;-11
2022/03/26 06:15:14;;;;;;;5.30;4.80;;;22.50;38.00;;;;;;5022560;28;20254;-11
2022/03/26 06:17:48;;;;;;;6.13;5.27;;;22.30;38.50;;;;;;5038832;28;20325;-11
2022/03/26 06:20:13;;;;;;;5.80;5.20;;;22.20;38.30;;;;;;5021348;28;20180;-11
2022/03/26 06:28:07;;;;;;;5.87;5.27;;;21.80;38.70;;;;;;5038222;28;20281;-11
2022/03/26 06:30:33;;;;;;;5.27;4.77;;;21.60;38.80;;;;;;5021483;28;20263;-11
2022/03/26 06:32:59;;;;;;;5.50;4.63;;;21.50;38.90;;;;;;5037562;28;20172;-11
2022/03/26 06:35:24;;;;;;;5.90;5.40;;;21.40;39.10;;;;;;5038096;28;20212;-11
2022/03/26 06:37:50;;;;;;;5.63;5.00;;;21.30;39.10;;;;;;5021588;28;20180;-11
2022/03/26 06:40:16;;;;;;;5.60;5.10;;;21.20;39.30;;;;;;5038245;28;20185;-11
2022/03/26 06:42:42;;;;;;;5.20;4.70;;;21.10;39.40;;;;;;5038366;28;20173;-11
2022/03/26 06:45:07;;;;;;;6.90;5.10;;;21.00;39.50;;;;;;5038352;28;20523;-11
2022/03/26 06:47:33;;;;;;;5.80;5.30;;;21.00;39.60;;;;;;5020757;28;20544;-12
2022/03/26 06:49:59;;;;;;;5.40;4.90;;;20.90;39.60;;;;;;5037772;28;20246;-11
2022/03/26 06:52:25;;;;;;;5.50;5.00;;;20.90;39.70;;;;;;5038625;28;20238;-11
2022/03/26 06:54:52;;;;;;;5.10;4.60;;;20.80;39.80;;;;;;5038461;28;20172;-11
2022/03/26 06:57:19;;;;;;;5.20;4.70;;;20.70;39.80;;;;;;5020670;28;20182;-11
2022/03/26 06:59:45;;;;;;;5.17;4.67;;;20.70;39.80;;;;;;5038484;28;20238;-11
2022/03/26 07:02:12;;;;;;;5.50;5.00;;;20.60;39.90;;;;;;5021030;28;20192;-11
2022/03/26 07:04:38;;;;;;;4.67;4.27;;;20.60;39.90;;;;;;5037934;28;20222;-11
2022/03/26 07:07:05;;;;;;;5.33;4.83;;;20.60;40.00;;;;;;5038343;28;20214;-11
2022/03/26 07:09:31;;;;;;;5.57;5.07;;;20.50;40.00;;;;;;5038470;28;20200;-11
2022/03/26 07:11:56;;;;;;;4.70;4.30;;;20.50;40.10;;;;;;5038307;28;20228;-11
2022/03/26 07:14:22;;;;;;;5.33;4.83;;;20.40;40.10;;;;;;5037457;28;20718;-11
2022/03/26 07:16:50;;;;;;;5.50;4.93;;;20.50;40.20;;;;;;5020631;28;20293;-12
2022/03/26 07:19:16;;;;;;;5.53;5.00;;;20.40;40.10;;;;;;5037870;28;20173;-11
2022/03/26 07:21:41;;;;;;;4.63;4.23;;;20.40;40.20;;;;;;5038006;28;20163;-12
2022/03/26 07:24:07;;;;;;;5.20;4.70;;;20.40;40.20;;;;;;5020035;28;20246;-12
2022/03/26 07:26:33;;;;;;;5.00;4.50;;;20.40;40.20;;;;;;5020646;28;20186;-12
2022/03/26 07:28:59;;;;;;;5.10;4.60;;;20.40;40.20;;;;;;5037356;28;20262;-12
2022/03/26 07:31:25;;;;;;;5.13;4.67;;;20.30;40.30;;;;;;5037247;28;20196;-12
2022/03/26 07:33:51;;;;;;;4.87;4.37;;;20.30;40.20;;;;;;5037468;28;20255;-12
2022/03/26 07:36:17;;;;;;;5.10;4.60;;;20.50;40.10;;;;;;5019832;28;20667;-12
2022/03/26 07:38:43;;;;;;;5.50;4.80;;;20.70;40.00;;;;;;5037074;28;20612;-12
2022/03/26 07:41:08;;;;;;;4.63;4.23;;;21.00;39.70;;;;;;5019767;28;20533;-12
2022/03/26 07:43:35;;;;;;;5.30;4.80;;;21.20;39.50;;;;;;5019703;28;20243;-12
2022/03/26 07:46:01;;;;;;;4.73;4.00;;;21.40;39.40;;;;;;5019279;28;20665;-12
2022/03/26 07:48:27;;;;;;;5.10;4.60;;;21.60;39.20;;;;;;5036919;28;20242;-12
2022/03/26 07:50:53;;;;;;;5.20;4.30;;;21.80;39.00;;;;;;5036733;28;20439;-12
2022/03/26 07:53:18;;;;;;;5.00;4.60;;;22.00;38.90;;;;;;5020037;28;20208;-12
2022/03/26 07:55:45;;;;;;;4.70;4.30;;;22.00;38.70;;;;;;5036816;28;20203;-12
2022/03/26 07:58:11;;;;;;;4.47;4.07;;;22.20;38.60;;;;;;5036539;28;20157;-12
2022/03/26 08:00:36;;;;;;;5.10;4.60;;;22.30;38.50;;;;;;5019352;28;20169;-12
2022/03/26 08:03:02;;;;;;;8.17;4.70;;;22.30;38.50;;;;;;5036555;28;20268;-12
2022/03/26 08:05:29;;;;;;;4.87;4.47;;;22.40;38.60;;;;;;5036861;28;20213;-12
2022/03/26 08:07:55;;;;;;;4.97;4.47;;;22.50;38.60;;;;;;5019493;28;20200;-12
2022/03/26 08:10:20;;;;;;;5.57;4.77;;;22.50;38.60;;;;;;5036185;28;20225;-12
2022/03/26 08:12:46;;;;;;;5.03;4.50;;;22.50;38.60;;;;;;5036544;28;20256;-12
2022/03/26 08:15:12;;;;;;;5.83;4.83;;;22.50;38.60;;;;;;5036208;28;20188;-12
2022/03/26 08:17:38;;;;;;;5.83;5.00;;;22.50;38.70;;;;;;5019179;28;20679;-12
2022/03/26 08:20:04;;;;;;;5.50;4.97;;;22.50;38.80;;;;;;5019369;28;20260;-12
2022/03/26 08:22:29;;;;;;;6.50;5.20;;;22.50;38.90;;;;;;5018559;28;20176;-12
2022/03/26 08:24:55;;;;;;;6.00;5.43;;;22.40;39.00;;;;;;5036394;28;20216;-12
2022/03/26 08:27:22;;;;;;;5.93;5.33;;;22.40;39.00;;;;;;5019748;28;20240;-12
2022/03/26 08:29:49;;;;;;;7.90;5.80;;;22.30;39.10;;;;;;5019076;28;20748;-12
2022/03/26 08:32:16;;;;;;;6.93;5.13;;;22.40;39.20;;;;;;5018864;28;20238;-12
2022/03/26 08:34:42;;;;;;;7.90;6.07;;;22.30;39.20;;;;;;5018890;28;20176;-12
2022/03/26 08:37:08;;;;;;;6.90;6.00;;;22.30;39.30;;;;;;5036333;28;20175;-12
2022/03/26 08:39:34;;;;;;;7.27;5.50;;;22.20;39.40;;;;;;5036085;28;20555;-12
2022/03/26 08:42:01;;;;;;;8.07;6.10;;;22.20;39.50;;;;;;5035420;28;20263;-12
2022/03/26 08:44:27;;;;;;;7.20;6.20;;;22.20;39.90;;;;;;5035841;28;20303;-12
2022/03/26 08:46:52;;;;;;;7.60;6.30;;;22.20;39.60;;;;;;5035933;28;20263;-12
2022/03/26 08:49:18;;;;;;;7.83;6.47;;;22.10;39.60;;;;;;5019001;28;20180;-12
2022/03/26 08:51:44;;;;;;;8.63;6.77;;;22.10;39.60;;;;;;5019586;28;20176;-12
2022/03/26 08:54:10;;;;;;;9.87;7.70;;;22.10;39.70;;;;;;5018726;28;20188;-13
2022/03/26 08:56:35;;;;;;;8.87;6.73;;;22.10;39.80;;;;;;5035761;28;20275;-13
2022/03/26 08:59:01;;;;;;;10.33;6.57;;;22.10;39.80;;;;;;5035650;28;20177;-12
2022/03/26 09:01:27;;;;;;;11.37;7.03;;;22.10;39.80;;;;;;5035705;28;20203;-12
2022/03/26 09:03:53;;;;;;;10.07;6.63;;;22.10;39.80;;;;;;5035635;28;20169;-12
2022/03/26 09:06:18;;;;;;;9.10;6.43;;;22.10;39.80;;;;;;5018690;28;20544;-12
2022/03/26 09:08:44;;;;;;;11.20;7.13;;;22.20;39.90;;;;;;5018449;28;20192;-12
2022/03/26 09:11:10;;;;;;;11.23;7.03;;;22.20;39.90;;;;;;5018668;28;20184;-12
2022/03/26 09:13:36;;;;;;;8.27;7.33;;;22.20;39.80;;;;;;5037704;28;20161;-12
2022/03/26 09:16:03;;;;;;;9.70;7.43;;;22.20;39.80;;;;;;5039018;28;20774;-12
2022/03/26 09:18:30;;;;;;;10.27;7.80;;;22.30;39.80;;;;;;5038966;28;20161;-12
2022/03/26 09:20:56;;;;;;;10.87;8.57;;;22.30;39.80;;;;;;5039198;28;20549;-13
2022/03/26 09:23:22;;;;;;;14.48;8.60;;;22.30;39.80;;;;;;5021296;28;20188;-13
2022/03/26 09:25:48;;;;;;;10.15;7.65;;;22.30;39.70;;;;;;5020966;28;20505;-12
2022/03/26 09:28:23;;;;;;;9.48;8.20;;;22.40;39.70;;;;;;5021437;28;20243;-12
2022/03/26 09:30:50;;;;;;;10.90;7.27;;;22.40;39.80;;;;;;5038228;28;20610;-12
2022/03/26 09:33:15;;;;;;;8.05;7.20;;;22.40;39.70;;;;;;5021310;28;20185;-13
2022/03/26 09:35:41;;;;;;;11.00;8.70;;;22.40;39.70;;;;;;5022148;28;20189;-12
2022/03/26 09:38:09;;;;;;;8.68;7.18;;;22.20;39.80;;;;;;5020113;28;20177;-13
2022/03/26 09:40:36;;;;;;;12.77;8.82;;;21.90;39.90;;;;;;5021735;28;20187;-13
2022/03/26 09:43:02;;;;;;;10.77;8.25;;;21.60;40.20;;;;;;5021774;28;20165;-13
2022/03/26 09:45:28;;;;;;;12.50;8.13;;;21.30;40.50;;;;;;5038060;28;20289;-12
2022/03/26 09:47:54;;;;;;;10.63;8.02;;;21.10;40.80;;;;;;5021827;28;20180;-13
2022/03/26 09:50:21;;;;;;;9.73;7.87;;;21.00;41.00;;;;;;5021008;28;20235;-13
2022/03/26 09:52:48;;;;;;;10.75;7.88;;;20.90;41.20;;;;;;5020868;28;20626;-13
2022/03/26 09:55:17;;;;;;;8.87;7.97;;;20.80;41.40;;;;;;5021122;28;20279;-13
2022/03/26 09:57:43;;;;;;;8.45;7.03;;;20.70;41.50;;;;;;5021506;28;20169;-13
2022/03/26 10:00:10;;;;;;;9.32;7.50;;;20.70;41.50;;;;;;5036789;28;20718;-12
2022/03/26 10:02:36;;;;;;;7.97;7.07;;;20.70;41.60;;;;;;5041288;28;20597;-12
2022/03/26 10:05:03;;;;;;;10.63;7.50;;;20.70;41.60;;;;;;5040837;28;20204;-13
2022/03/26 10:07:31;;;;;;;8.75;7.15;;;20.60;41.60;;;;;;5039483;28;20177;-13
2022/03/26 10:09:57;;;;;;;11.60;7.57;;;20.60;41.60;;;;;;5040522;28;20227;-13
2022/03/26 10:12:27;;;;;;;10.48;7.63;;;20.60;41.60;;;;;;5058219;28;20206;-13
2022/03/26 10:14:57;;;;;;;9.57;7.80;;;20.60;41.70;;;;;;5040535;28;20169;-13
2022/03/26 10:17:41;;;;;;;9.18;7.57;;;20.50;41.70;;;;;;5040393;28;20195;-13
2022/03/26 10:20:16;;;;;;;8.25;7.38;;;20.50;41.80;;;;;;5040370;28;20176;-13
2022/03/26 10:22:48;;;;;;;9.93;8.38;;;20.50;41.80;;;;;;5040102;28;20274;-13
2022/03/26 10:25:25;;;;;;;10.97;8.27;;;20.50;41.90;;;;;;5039968;28;20218;-13
2022/03/26 10:27:54;;;;;;;8.77;7.60;;;20.50;41.90;;;;;;5057897;28;20148;-13
2022/03/26 10:32:38;;;;;;;7.87;7.07;;;20.50;42.00;;;;;;5056746;28;20164;-13
2022/03/26 10:33:23;;;;;;;11.70;7.33;;;20.50;42.10;;;;;;5058025;28;20587;-13
2022/03/26 10:35:59;;;;;;;9.83;8.10;;;20.50;42.10;;;;;;5057602;28;20207;-12
2022/03/26 10:38:28;;;;;;;11.90;7.50;;;20.50;42.10;;;;;;5040313;28;20270;-12
2022/03/26 10:40:59;;;;;;;8.43;6.67;;;20.50;42.20;;;;;;5039863;28;20263;-12
2022/03/26 10:43:26;;;;;;;9.20;7.17;;;20.40;42.10;;;;;;5057267;28;20176;-12
2022/03/26 10:45:55;;;;;;;10.57;7.20;;;20.40;42.20;;;;;;5057421;28;20315;-12
2022/03/26 10:48:32;;;;;;;7.50;6.70;;;20.40;42.20;;;;;;5057148;28;20188;-12
2022/03/26 10:51:21;;;;;;;9.03;6.50;;;20.40;42.20;;;;;;5039262;28;20176;-12
2022/03/26 10:53:47;;;;;;;10.47;6.43;;;20.40;42.40;;;;;;5056832;28;20181;-12
2022/03/26 10:56:14;;;;;;;9.90;6.60;;;20.40;42.30;;;;;;5039138;28;20175;-12
2022/03/26 10:58:43;;;;;;;10.17;6.97;;;20.40;42.40;;;;;;5038820;28;20245;-12
2022/03/26 11:01:09;;;;;;;6.87;6.13;;;20.40;42.40;;;;;;5056796;28;20209;-12
2022/03/26 11:03:35;;;;;;;8.90;6.23;;;20.40;42.50;;;;;;5057191;28;20184;-12
2022/03/26 11:06:02;;;;;;;7.93;6.33;;;20.40;42.40;;;;;;5056725;28;20526;-12
2022/03/26 11:08:32;;;;;;;9.67;6.40;;;20.40;42.50;;;;;;5055873;28;20168;-12
2022/03/26 11:11:01;;;;;;;8.50;6.10;;;20.40;42.50;;;;;;5038166;28;21050;-12
2022/03/26 11:13:28;;;;;;;7.87;5.97;;;20.30;42.50;;;;;;5039494;28;20576;-12
2022/03/26 11:16:01;;;;;;;8.13;5.67;;;20.30;42.50;;;;;;5055745;28;20183;-12
2022/03/26 11:18:47;;;;;;;9.53;6.43;;;20.30;42.60;;;;;;5056059;28;20178;-12
2022/03/26 11:21:13;;;;;;;10.00;5.43;;;20.30;42.60;;;;;;5056530;28;20190;-12
2022/03/26 11:24:09;;;;;;;7.93;5.63;;;20.30;42.60;;;;;;5039236;28;20615;-12
2022/03/26 11:27:16;;;;;;;9.97;5.90;;;20.30;42.70;;;;;;5043558;28;20611;-12
2022/03/26 11:30:11;;;;;;;8.80;5.60;;;20.30;42.80;;;;;;5056176;28;20164;-12
2022/03/26 11:32:43;;;;;;;9.17;5.80;;;20.30;42.80;;;;;;4966475;28;20337;-12
2022/03/26 11:35:11;;;;;;;8.37;5.37;;;20.30;42.80;;;;;;5045708;28;20582;-12
2022/03/26 11:37:58;;;;;;;9.07;5.50;;;20.30;42.80;;;;;;5056536;28;20149;-12
2022/03/26 11:40:46;;;;;;;6.27;4.90;;;20.30;42.90;;;;;;5055833;28;20282;-12
2022/03/26 11:43:17;;;;;;;6.03;4.90;;;20.20;42.90;;;;;;5056202;28;20207;-12
2022/03/26 11:51:25;;;;;;;7.30;4.57;;;20.20;43.00;;;;;;5054911;28;20171;-12
2022/03/26 11:54:12;;;;;;;6.57;4.97;;;20.20;43.00;;;;;;5055316;28;20309;-11
2022/03/26 11:56:40;;;;;;;7.07;4.70;;;20.20;43.00;;;;;;5054924;28;20407;-11
2022/03/26 11:59:16;;;;;;;5.90;4.63;;;20.20;43.10;;;;;;5054743;28;20196;-12
2022/03/26 12:01:45;;;;;;;5.57;4.37;;;20.20;43.10;;;;;;5052621;28;20867;-12
2022/03/26 12:04:18;;;;;;;7.37;4.37;;;20.20;43.10;;;;;;5036874;28;20215;-12
2022/03/26 12:06:48;;;;;;;5.43;4.53;;;20.20;43.10;;;;;;5049994;28;20168;-11
2022/03/26 12:09:33;;;;;;;5.37;4.10;;;20.20;43.10;;;;;;5054647;28;20687;-11
2022/03/26 12:12:15;;;;;;;4.97;4.27;;;20.20;43.20;;;;;;5038057;28;20229;-12
2022/03/26 12:15:02;;;;;;;6.07;4.00;;;20.20;43.20;;;;;;5037616;28;20223;-16
2022/03/26 12:17:46;;;;;;;6.67;4.30;;;20.10;43.20;;;;;;5054938;28;20222;-12
2022/03/26 12:20:25;;;;;;;6.03;4.70;;;20.10;43.20;;;;;;5055546;28;20196;-11
2022/03/26 12:23:28;;;;;;;8.03;4.17;;;20.10;43.30;;;;;;5054960;28;20167;-11
2022/03/26 12:25:59;;;;;;;5.80;4.70;;;20.10;43.30;;;;;;5054816;28;20226;-11
2022/03/26 12:28:25;;;;;;;5.53;4.33;;;20.10;43.30;;;;;;5037168;28;20183;-11
2022/03/26 12:30:55;;;;;;;6.20;4.43;;;20.10;43.30;;;;;;5054183;28;20167;-12
2022/03/26 12:33:24;;;;;;;5.23;4.00;;;20.10;43.30;;;;;;5052922;28;20175;-12
2022/03/26 12:35:55;;;;;;;6.20;4.00;;;20.10;43.40;;;;;;5036733;28;20187;-11
2022/03/26 12:38:22;;;;;;;5.23;3.73;;;20.10;43.40;;;;;;5054303;28;20269;-11
2022/03/26 12:40:52;;;;;;;6.60;4.20;;;20.10;43.40;;;;;;5054945;28;20175;-11
2022/03/26 12:43:18;;;;;;;5.43;4.10;;;20.00;43.40;;;;;;5037897;28;20183;-12
2022/03/26 12:45:44;;;;;;;5.30;4.13;;;20.00;43.40;;;;;;5037412;28;20195;-11
2022/03/26 12:48:11;;;;;;;5.10;4.03;;;20.10;43.50;;;;;;5057764;28;20629;-11
2022/03/26 12:50:43;;;;;;;4.80;4.03;;;20.00;43.50;;;;;;5051118;28;20274;-11
2022/03/26 12:53:14;;;;;;;5.17;4.10;;;20.00;43.40;;;;;;5041366;28;20179;-11
2022/03/26 12:55:41;;;;;;;6.47;4.30;;;20.00;43.50;;;;;;5058318;28;20211;-11
2022/03/26 13:01:09;;;;;;;6.40;4.30;;;20.00;43.50;;;;;;5057994;28;20190;-12
2022/03/26 13:03:35;;;;;;;5.27;3.83;;;20.00;43.60;;;;;;5058936;28;20271;-11
2022/03/26 13:06:09;;;;;;;5.70;3.70;;;20.00;43.70;;;;;;5040892;28;20208;-11